Time;durP1;ratioP1;P1;durP2;ratioP2;P2;SDS_P1;SDS_P2;PMS_P1;PMS_P2;Temp;Humidity;BMP_temperature;BMP_pressure;BME280_temperature;BME280_humidity;BME280_pressure;Samples;Min_cycle;Max_cycle;Signal;HPM_P1;HPM_P2
2022/09/15 00:00:52;;;;;;;2.50;1.43;;;17.10;99.90;;;;;;5136520;28;20180;-84
2022/09/15 00:03:18;;;;;;;5.70;1.53;;;;;;;;;;5132844;28;20603;-85
2022/09/15 00:05:45;;;;;;;3.27;1.33;;;;;;;;;;5121298;28;20227;-83
2022/09/15 00:08:12;;;;;;;2.90;1.47;;;17.10;99.90;;;;;;5119878;28;20232;-84
2022/09/15 00:10:46;;;;;;;2.13;1.13;;;17.10;99.90;;;;;;5120933;28;20175;-84
2022/09/15 00:13:12;;;;;;;2.67;1.23;;;;;;;;;;5120246;28;20188;-86
2022/09/15 00:15:38;;;;;;;3.87;1.50;;;;;;;;;;5121456;28;20195;-83
2022/09/15 00:18:06;;;;;;;2.57;1.13;;;;;;;;;;5120878;28;20193;-82
2022/09/15 00:20:32;;;;;;;2.03;1.43;;;;;;;;;;5121546;27;20199;-87
2022/09/15 00:22:58;;;;;;;2.30;1.27;;;;;;;;;;5120991;28;20199;-84
2022/09/15 00:25:24;;;;;;;2.27;1.17;;;;;;;;;;5121150;28;20545;-83
2022/09/15 00:27:49;;;;;;;3.87;1.50;;;17.20;99.90;;;;;;5120334;28;20191;-83
2022/09/15 00:30:15;;;;;;;6.30;2.03;;;;;;;;;;5120861;28;20164;-85
2022/09/15 00:32:42;;;;;;;2.23;1.40;;;;;;;;;;5120165;28;20195;-84
2022/09/15 00:35:08;;;;;;;5.00;1.40;;;;;;;;;;5119830;28;20544;-84
2022/09/15 00:37:34;;;;;;;3.27;1.37;;;;;;;;;;5120889;28;20549;-85
2022/09/15 00:40:00;;;;;;;4.33;1.43;;;;;;;;;;5121530;28;20693;-84
2022/09/15 00:42:25;;;;;;;5.53;1.43;;;16.80;99.90;;;;;;5121418;28;20230;-85
2022/09/15 00:45:00;;;;;;;1.97;1.27;;;17.00;99.90;;;;;;5120502;28;20183;-84
2022/09/15 00:47:37;;;;;;;4.07;1.60;;;17.10;99.90;;;;;;5120596;28;20209;-83
2022/09/15 00:50:08;;;;;;;4.60;1.50;;;17.10;99.90;;;;;;5120667;28;20172;-85
2022/09/15 00:52:46;;;;;;;2.33;1.40;;;17.00;99.90;;;;;;5120743;28;20563;-85
2022/09/15 00:55:22;;;;;;;2.40;1.30;;;17.10;99.90;;;;;;5121114;28;20167;-84
2022/09/15 00:57:51;;;;;;;3.40;1.87;;;;;;;;;;5122105;28;20670;-87
2022/09/15 01:00:20;;;;;;;1.87;1.47;;;17.10;99.90;;;;;;5128279;27;20671;-83
2022/09/15 01:02:47;;;;;;;1.83;1.27;;;17.20;99.90;;;;;;5120203;28;20246;-85
2022/09/15 01:05:16;;;;;;;3.30;1.63;;;17.30;99.90;;;;;;5118653;28;20224;-86
2022/09/15 01:07:54;;;;;;;2.93;1.40;;;17.10;99.90;;;;;;5118920;28;20672;-83
2022/09/15 01:10:27;;;;;;;4.03;1.20;;;16.90;99.90;;;;;;5119183;28;20262;-85
2022/09/15 01:12:56;;;;;;;2.40;1.40;;;16.90;99.90;;;;;;5120165;28;20192;-84
2022/09/15 01:15:25;;;;;;;3.37;1.67;;;16.90;99.90;;;;;;5119236;28;20172;-85
2022/09/15 01:17:59;;;;;;;4.37;1.70;;;17.10;99.90;;;;;;5117591;28;20649;-85
2022/09/15 01:20:28;;;;;;;5.10;1.60;;;17.50;99.90;;;;;;5118416;28;20181;-84
2022/09/15 01:23:11;;;;;;;4.30;1.60;;;17.20;99.90;;;;;;5120780;28;20252;-85
2022/09/15 01:25:49;;;;;;;2.53;1.30;;;17.40;99.90;;;;;;5120645;28;20231;-84
2022/09/15 01:28:35;;;;;;;2.07;1.30;;;17.30;99.90;;;;;;5121612;28;20654;-84
2022/09/15 01:31:15;;;;;;;3.13;1.30;;;17.00;99.90;;;;;;5120736;28;20180;-84
2022/09/15 01:33:50;;;;;;;2.43;1.50;;;17.30;99.90;;;;;;5122473;28;20183;-84
2022/09/15 01:36:32;;;;;;;3.57;1.80;;;17.20;99.90;;;;;;5122535;28;20244;-85
2022/09/15 01:39:14;;;;;;;3.30;1.50;;;17.20;99.90;;;;;;5122134;28;20175;-85
2022/09/15 01:41:55;;;;;;;2.57;1.60;;;16.80;99.90;;;;;;5122107;28;20231;-84
2022/09/15 06:15:36;;;;;;;1.27;0.80;;;16.60;99.90;;;;;;5074398;28;20581;-85
2022/09/15 06:18:02;;;;;;;3.13;0.87;;;16.70;99.90;;;;;;5071948;28;20181;-85
2022/09/15 06:20:28;;;;;;;0.93;0.80;;;;;;;;;;5073871;28;20196;-85
2022/09/15 06:22:55;;;;;;;1.53;1.00;;;16.70;99.90;;;;;;5071976;28;20246;-85
2022/09/15 06:25:25;;;;;;;3.57;1.20;;;16.70;99.90;;;;;;5071089;28;20188;-86
2022/09/15 06:27:50;;;;;;;0.97;0.80;;;16.70;99.90;;;;;;5073003;28;20171;-87
2022/09/15 06:30:16;;;;;;;1.43;1.00;;;16.80;99.90;;;;;;5074478;28;20255;-86
2022/09/15 06:32:42;;;;;;;2.00;1.10;;;16.80;99.90;;;;;;5072430;28;20744;-85
2022/09/15 06:35:08;;;;;;;1.90;1.00;;;16.80;99.90;;;;;;5072485;28;20203;-85
2022/09/15 06:37:34;;;;;;;2.90;1.20;;;16.90;99.90;;;;;;5071988;28;20656;-86
2022/09/15 06:40:00;;;;;;;2.50;0.97;;;16.90;99.90;;;;;;5072601;28;20195;-86
2022/09/15 06:42:26;;;;;;;1.60;1.00;;;16.90;99.90;;;;;;5074014;28;20196;-86
2022/09/15 06:44:52;;;;;;;2.90;0.80;;;;;;;;;;5072532;28;20772;-86
2022/09/15 06:47:18;;;;;;;2.13;1.00;;;17.00;99.90;;;;;;5073715;28;20174;-86
2022/09/15 06:49:44;;;;;;;2.23;1.00;;;17.00;99.90;;;;;;5072936;28;20181;-85
2022/09/15 06:52:10;;;;;;;2.23;1.07;;;;;;;;;;5073241;28;20201;-85
2022/09/15 06:54:36;;;;;;;2.17;1.10;;;17.00;99.90;;;;;;5073075;28;20213;-86
2022/09/15 06:57:02;;;;;;;1.63;1.10;;;17.10;99.90;;;;;;5072772;28;20236;-84
2022/09/15 06:59:27;;;;;;;1.07;0.90;;;17.20;99.90;;;;;;5075407;28;20165;-84
2022/09/15 07:01:54;;;;;;;1.10;1.00;;;17.40;99.90;;;;;;5074045;28;20246;-85
2022/09/15 07:04:20;;;;;;;1.03;0.93;;;17.40;99.90;;;;;;5074398;28;20266;-85
2022/09/15 07:06:47;;;;;;;0.90;0.80;;;17.60;99.90;;;;;;5074333;28;20190;-85
2022/09/15 07:09:13;;;;;;;3.10;0.90;;;17.80;99.90;;;;;;5075998;28;20169;-84
2022/09/15 07:11:38;;;;;;;2.20;1.00;;;17.90;99.90;;;;;;5073844;28;20218;-86
2022/09/15 07:14:04;;;;;;;1.20;0.90;;;;;;;;;;5075081;28;20208;-86
2022/09/15 07:16:30;;;;;;;4.83;1.70;;;17.90;99.90;;;;;;5075956;28;20177;-85
2022/09/15 07:18:59;;;;;;;1.37;1.00;;;18.00;99.90;;;;;;5073349;28;20187;-85
2022/09/15 07:21:24;;;;;;;1.67;1.00;;;18.10;99.90;;;;;;5080935;28;20177;-83
2022/09/15 07:23:51;;;;;;;2.70;1.10;;;18.10;99.90;;;;;;5087127;28;20215;-86
2022/09/15 07:26:22;;;;;;;1.43;0.90;;;18.20;99.90;;;;;;5077188;28;20182;-85
2022/09/15 07:28:52;;;;;;;2.77;1.00;;;18.20;99.90;;;;;;5069318;28;20181;-85
2022/09/15 07:31:21;;;;;;;7.07;1.50;;;18.20;99.90;;;;;;5064887;28;20719;-85
2022/09/15 07:33:47;;;;;;;1.37;0.70;;;;;;;;;;5061229;28;20210;-85
2022/09/15 07:36:13;;;;;;;2.67;0.97;;;18.20;99.90;;;;;;5057537;28;20689;-87
2022/09/15 07:38:41;;;;;;;4.70;1.03;;;18.20;99.90;;;;;;5058389;28;20241;-86
2022/09/15 07:41:10;;;;;;;3.47;1.00;;;18.40;99.90;;;;;;5058903;28;20175;-85
2022/09/15 07:43:36;;;;;;;2.10;1.00;;;;;;;;;;5057924;28;20290;-86
2022/09/15 07:46:02;;;;;;;1.83;1.00;;;;;;;;;;5059240;28;20201;-85
2022/09/15 07:48:28;;;;;;;1.37;0.80;;;;;;;;;;5057393;28;20614;-85
2022/09/15 07:50:54;;;;;;;2.30;1.20;;;18.40;99.90;;;;;;5057877;28;20228;-86
2022/09/15 07:53:20;;;;;;;1.43;1.10;;;18.20;99.90;;;;;;5059090;28;20200;-84
2022/09/15 07:55:52;;;;;;;2.50;1.20;;;18.40;99.90;;;;;;5058648;28;20181;-86
2022/09/15 07:58:20;;;;;;;1.63;1.10;;;18.30;99.90;;;;;;5057447;28;20171;-86
2022/09/15 08:00:46;;;;;;;2.97;1.50;;;18.20;99.90;;;;;;5057579;28;20202;-84
2022/09/15 08:03:12;;;;;;;1.43;1.10;;;18.20;99.90;;;;;;5057063;28;20199;-85
2022/09/15 08:05:38;;;;;;;3.33;1.83;;;18.40;99.90;;;;;;5056518;28;20186;-86
2022/09/15 08:08:05;;;;;;;1.87;1.20;;;;;;;;;;5059459;28;20174;-84
2022/09/15 08:10:31;;;;;;;1.30;1.00;;;18.00;99.90;;;;;;5057814;28;20269;-85
2022/09/15 08:12:58;;;;;;;4.40;1.33;;;18.00;99.90;;;;;;5059183;28;20235;-85
2022/09/15 08:15:24;;;;;;;1.67;1.00;;;;;;;;;;5061335;28;20211;-86
2022/09/15 08:17:50;;;;;;;1.60;1.10;;;17.80;99.90;;;;;;5058348;28;20219;-85
2022/09/15 08:20:16;;;;;;;2.97;1.30;;;;;;;;;;5060442;28;20183;-85
2022/09/15 08:22:44;;;;;;;1.80;1.00;;;17.90;99.90;;;;;;5060463;28;20556;-84
2022/09/15 08:25:10;;;;;;;2.23;1.27;;;;;;;;;;5060684;28;20180;-86
2022/09/15 08:27:36;;;;;;;2.87;1.73;;;18.00;99.90;;;;;;5058803;28;20193;-83
2022/09/15 08:30:02;;;;;;;2.80;1.30;;;18.00;99.90;;;;;;5060846;28;20179;-84
2022/09/15 08:32:28;;;;;;;4.30;1.30;;;;;;;;;;5058794;28;20207;-84
2022/09/15 08:34:54;;;;;;;1.33;1.07;;;18.10;99.90;;;;;;5059966;28;20679;-85
2022/09/15 08:37:20;;;;;;;2.57;1.10;;;;;;;;;;5058753;28;20176;-85
2022/09/15 08:39:46;;;;;;;1.57;1.10;;;;;;;;;;5062380;28;20173;-87
2022/09/15 08:42:17;;;;;;;2.20;1.20;;;18.40;99.90;;;;;;5062087;28;20194;-85
2022/09/15 08:44:51;;;;;;;2.20;1.13;;;18.20;99.90;;;;;;5062383;28;20175;-87
2022/09/15 08:47:30;;;;;;;2.00;1.10;;;18.10;99.90;;;;;;5061759;28;20193;-84
2022/09/15 08:50:09;;;;;;;1.97;1.23;;;17.70;99.90;;;;;;5064018;28;20277;-87
2022/09/15 08:52:47;;;;;;;2.13;1.40;;;18.10;99.90;;;;;;5063502;28;20292;-86
2022/09/15 08:55:39;;;;;;;2.17;1.20;;;18.30;99.90;;;;;;5064819;28;20198;-86
2022/09/15 08:58:05;;;;;;;1.47;1.20;;;18.30;99.90;;;;;;5058073;28;20196;-86
2022/09/15 09:00:32;;;;;;;2.23;1.20;;;18.00;99.90;;;;;;5058884;28;20534;-83
2022/09/15 09:02:58;;;;;;;6.17;1.27;;;;;;;;;;5058971;28;20194;-81
2022/09/15 09:05:33;;;;;;;2.00;1.20;;;18.40;99.90;;;;;;5059042;28;20174;-83
2022/09/15 09:08:05;;;;;;;2.10;1.30;;;;;;;;;;5058641;28;20505;-83
2022/09/15 09:10:54;;;;;;;1.50;1.20;;;18.50;99.90;;;;;;5057708;28;20241;-84
2022/09/15 09:13:35;;;;;;;1.27;1.10;;;18.40;99.90;;;;;;5057239;28;20218;-83
2022/09/15 09:16:03;;;;;;;1.43;1.20;;;;;;;;;;5058621;28;20561;-84
2022/09/15 09:18:31;;;;;;;2.50;1.20;;;18.50;99.90;;;;;;5055795;28;20180;-83
2022/09/15 09:21:13;;;;;;;3.13;1.47;;;18.60;99.90;;;;;;5055469;28;20177;-83
2022/09/15 09:23:45;;;;;;;1.27;1.17;;;;;;;;;;5056536;28;20202;-85
2022/09/15 09:26:11;;;;;;;2.57;1.47;;;19.20;99.90;;;;;;5056605;28;20177;-86
2022/09/15 09:29:17;;;;;;;1.70;1.20;;;19.20;99.90;;;;;;5055192;28;20269;-84
2022/09/15 09:31:46;;;;;;;2.93;1.33;;;18.90;99.90;;;;;;5055679;28;20203;-85
2022/09/15 09:34:37;;;;;;;1.53;1.23;;;18.80;99.90;;;;;;5057873;28;20188;-84
2022/09/15 09:37:14;;;;;;;2.87;1.50;;;18.60;99.90;;;;;;5055450;28;20523;-85
2022/09/15 09:39:40;;;;;;;2.10;1.10;;;18.90;99.90;;;;;;5056785;28;20167;-83
2022/09/15 09:42:13;;;;;;;1.87;1.17;;;18.80;99.90;;;;;;5055447;28;20286;-83
2022/09/15 09:44:39;;;;;;;1.60;1.23;;;18.70;99.90;;;;;;5055815;28;20205;-85
2022/09/15 09:47:05;;;;;;;1.77;1.00;;;19.10;99.90;;;;;;5056776;28;20233;-84
2022/09/15 09:49:37;;;;;;;3.30;1.70;;;18.80;99.90;;;;;;5055862;28;20539;-84
2022/09/15 09:52:03;;;;;;;1.23;1.13;;;18.60;99.90;;;;;;5054109;28;20222;-85
2022/09/15 09:54:31;;;;;;;1.10;1.00;;;18.50;99.90;;;;;;5055537;28;20260;-84
2022/09/15 09:57:25;;;;;;;1.53;1.20;;;18.50;99.90;;;;;;5055546;28;20175;-85
2022/09/15 09:59:51;;;;;;;2.17;1.20;;;18.50;99.90;;;;;;5057225;28;20187;-85
2022/09/15 10:02:27;;;;;;;1.97;1.40;;;18.40;99.90;;;;;;5057711;28;20195;-84
2022/09/15 10:05:02;;;;;;;1.33;1.10;;;18.40;99.90;;;;;;5055995;28;20174;-83
2022/09/15 10:07:28;;;;;;;1.43;1.10;;;;;;;;;;5055521;28;20230;-84
2022/09/15 10:09:57;;;;;;;2.83;1.37;;;18.50;99.90;;;;;;5055792;28;20621;-82
2022/09/15 10:12:29;;;;;;;2.80;1.40;;;18.70;99.90;;;;;;5055710;28;20208;-85
2022/09/15 10:14:59;;;;;;;4.40;1.37;;;18.70;99.90;;;;;;5056520;28;20209;-84
2022/09/15 10:17:45;;;;;;;1.67;1.10;;;18.90;99.90;;;;;;5055079;28;20177;-83
2022/09/15 10:20:24;;;;;;;6.03;1.50;;;19.40;99.90;;;;;;5057107;28;20204;-85
2022/09/15 10:22:51;;;;;;;2.20;1.27;;;19.40;99.90;;;;;;5056646;28;20731;-85
2022/09/15 10:25:19;;;;;;;1.63;1.17;;;19.40;99.90;;;;;;5056788;28;20207;-85
2022/09/15 10:28:07;;;;;;;2.60;1.47;;;19.70;99.90;;;;;;5056526;28;20191;-86
2022/09/15 10:30:33;;;;;;;2.50;1.30;;;19.50;99.90;;;;;;5055500;28;20206;-84
2022/09/15 10:33:25;;;;;;;2.30;1.30;;;19.60;99.90;;;;;;5055708;28;20203;-84
2022/09/15 10:35:52;;;;;;;1.40;1.30;;;20.00;99.90;;;;;;5058851;28;20187;-84
2022/09/15 10:38:33;;;;;;;1.53;1.20;;;19.80;99.90;;;;;;5057257;28;20187;-85
2022/09/15 10:41:02;;;;;;;2.70;1.30;;;19.80;99.90;;;;;;5059341;28;20175;-85
2022/09/15 10:44:14;;;;;;;2.07;1.23;;;19.70;99.90;;;;;;5059504;28;20204;-83
2022/09/15 10:46:59;;;;;;;3.30;1.33;;;19.80;99.90;;;;;;5059086;28;20247;-84
2022/09/15 10:49:42;;;;;;;1.30;1.17;;;19.90;99.90;;;;;;5060170;28;20173;-84
2022/09/15 10:52:28;;;;;;;7.67;1.50;;;19.90;99.90;;;;;;5059584;28;20200;-85
2022/09/15 10:55:12;;;;;;;2.27;1.10;;;19.90;99.90;;;;;;5061620;28;20203;-86
2022/09/15 10:57:41;;;;;;;1.60;1.30;;;;;;;;;;5068927;28;20184;-85
2022/09/15 11:00:17;;;;;;;1.70;1.20;;;20.10;99.90;;;;;;5067275;28;20713;-84
2022/09/15 11:02:54;;;;;;;2.13;1.10;;;19.90;99.90;;;;;;5073051;28;20222;-84
2022/09/15 11:05:33;;;;;;;2.50;1.20;;;19.20;99.90;;;;;;5072016;28;20196;-80
2022/09/15 11:08:10;;;;;;;1.93;1.23;;;19.20;99.90;;;;;;5062581;28;20174;-82
2022/09/15 11:10:54;;;;;;;3.27;1.20;;;19.20;99.90;;;;;;5061295;28;20202;-85
2022/09/15 11:13:29;;;;;;;3.77;1.10;;;19.10;99.90;;;;;;5060824;28;20201;-85
2022/09/15 11:16:12;;;;;;;1.60;1.27;;;19.10;99.90;;;;;;5060397;28;20172;-84
2022/09/15 11:19:13;;;;;;;3.20;1.10;;;18.80;99.90;;;;;;5061745;28;20206;-84
2022/09/15 11:21:54;;;;;;;2.87;1.10;;;18.60;99.90;;;;;;5058173;28;20181;-84
2022/09/15 11:24:39;;;;;;;1.40;1.03;;;18.10;99.90;;;;;;5061505;28;20180;-85
2022/09/15 11:27:10;;;;;;;3.30;0.97;;;17.80;99.90;;;;;;5063010;28;20205;-84
2022/09/15 11:30:01;;;;;;;1.40;1.00;;;18.20;99.90;;;;;;5062414;28;20170;-83
2022/09/15 11:32:53;;;;;;;0.93;0.83;;;17.70;99.90;;;;;;5060728;28;20825;-83
2022/09/15 11:35:30;;;;;;;3.47;1.10;;;17.90;99.90;;;;;;5063139;28;20228;-85
2022/09/15 11:38:09;;;;;;;1.20;1.00;;;18.00;99.90;;;;;;5061354;28;20188;-84
2022/09/15 11:41:05;;;;;;;1.30;1.03;;;18.50;99.90;;;;;;5060444;28;20177;-84
2022/09/15 11:43:44;;;;;;;1.17;0.90;;;18.40;99.90;;;;;;5063920;28;20209;-83
2022/09/15 11:46:16;;;;;;;1.77;0.80;;;18.60;99.90;;;;;;5061768;28;20177;-84
2022/09/15 11:48:50;;;;;;;1.77;1.00;;;18.60;99.90;;;;;;5060987;28;20173;-82
2022/09/15 11:51:21;;;;;;;1.57;0.80;;;18.60;99.90;;;;;;5059624;28;20540;-85
2022/09/15 11:54:01;;;;;;;3.60;0.83;;;18.60;99.90;;;;;;5063468;28;20189;-83
2022/09/15 11:56:32;;;;;;;1.93;0.73;;;18.70;99.90;;;;;;5060146;28;20176;-85
2022/09/15 11:59:16;;;;;;;1.33;0.80;;;19.10;99.90;;;;;;5060980;28;20174;-85
2022/09/15 12:02:08;;;;;;;1.20;0.80;;;19.10;99.90;;;;;;5060104;28;20204;-84
2022/09/15 12:04:39;;;;;;;3.13;0.90;;;19.10;99.90;;;;;;5059188;28;20205;-85
2022/09/15 12:07:12;;;;;;;0.93;0.90;;;19.40;99.90;;;;;;5059445;28;20217;-84
2022/09/15 12:09:38;;;;;;;1.43;1.00;;;19.00;99.90;;;;;;5060696;28;20198;-84
2022/09/15 12:12:14;;;;;;;1.03;0.90;;;20.00;99.90;;;;;;5060536;28;20198;-83
2022/09/15 12:14:48;;;;;;;1.90;1.00;;;21.10;99.90;;;;;;5060281;28;20293;-83
2022/09/15 12:17:25;;;;;;;4.13;1.03;;;21.10;99.90;;;;;;5059399;28;20208;-85
2022/09/15 12:20:13;;;;;;;2.03;0.90;;;21.10;99.90;;;;;;5058989;28;20268;-86
2022/09/15 12:22:45;;;;;;;1.13;0.93;;;22.30;99.90;;;;;;5059270;28;20233;-85
2022/09/15 12:25:21;;;;;;;1.53;1.17;;;22.20;99.90;;;;;;5060465;28;20209;-85
2022/09/15 12:28:22;;;;;;;1.10;0.90;;;21.30;99.90;;;;;;5059715;28;20542;-86
2022/09/15 12:30:49;;;;;;;4.53;1.23;;;20.50;99.90;;;;;;5062531;28;20187;-84
2022/09/15 12:33:41;;;;;;;2.17;1.17;;;20.00;99.90;;;;;;5060288;28;20209;-86
2022/09/15 12:36:40;;;;;;;0.97;0.97;;;19.90;99.90;;;;;;5052623;28;20201;-84
2022/09/15 12:39:22;;;;;;;1.93;1.20;;;19.90;99.90;;;;;;5060145;28;20182;-87
2022/09/15 12:41:51;;;;;;;1.10;0.90;;;19.50;99.90;;;;;;5060980;28;20740;-86
2022/09/15 12:44:25;;;;;;;1.50;1.10;;;19.50;99.90;;;;;;5061484;28;20192;-84
2022/09/15 12:46:57;;;;;;;1.57;1.20;;;19.40;99.90;;;;;;5060903;28;20216;-85
2022/09/15 12:49:34;;;;;;;1.10;1.00;;;19.10;99.90;;;;;;5059506;28;20268;-87
2022/09/15 12:52:04;;;;;;;1.17;0.90;;;19.20;99.90;;;;;;5061061;28;20251;-83
2022/09/15 12:54:32;;;;;;;1.13;1.03;;;19.40;99.90;;;;;;5060448;28;20204;-82
2022/09/15 12:57:00;;;;;;;1.30;0.97;;;19.70;99.90;;;;;;5059569;28;20181;-83
2022/09/15 12:59:27;;;;;;;0.97;0.90;;;20.10;99.90;;;;;;5060148;28;20176;-82
2022/09/15 13:01:54;;;;;;;1.57;1.20;;;20.20;99.90;;;;;;5059008;28;20196;-82
2022/09/15 13:04:56;;;;;;;1.57;1.17;;;20.20;99.90;;;;;;5059364;28;20181;-86
2022/09/15 13:07:32;;;;;;;1.40;1.20;;;20.80;99.90;;;;;;5057600;28;20219;-85
2022/09/15 13:10:12;;;;;;;2.53;1.00;;;21.70;99.90;;;;;;5057758;28;20260;-84
2022/09/15 13:12:45;;;;;;;2.17;1.10;;;23.20;99.90;;;;;;5059046;28;20280;-86
2022/09/15 13:15:14;;;;;;;2.17;1.03;;;23.80;99.90;;;;;;5057525;28;20209;-85
2022/09/15 13:17:44;;;;;;;3.43;1.00;;;23.80;99.90;;;;;;5058331;28;20175;-83
2022/09/15 13:20:16;;;;;;;1.70;1.10;;;24.00;99.90;;;;;;5058060;28;20630;-84
2022/09/15 13:22:50;;;;;;;1.57;0.97;;;23.90;99.90;;;;;;5056307;28;20691;-86
2022/09/15 13:25:25;;;;;;;2.40;0.93;;;22.80;99.90;;;;;;5057940;28;20176;-87
2022/09/15 13:27:51;;;;;;;1.10;0.90;;;;;;;;;;5059628;28;20165;-85
2022/09/15 13:30:23;;;;;;;0.87;0.80;;;;;;;;;;5057705;28;20656;-84
2022/09/15 13:33:21;;;;;;;1.00;0.90;;;22.40;99.90;;;;;;5057770;28;20192;-85
2022/09/15 13:36:19;;;;;;;1.53;1.07;;;21.10;99.90;;;;;;5058794;28;20163;-85
2022/09/15 13:38:51;;;;;;;3.00;1.00;;;21.30;99.90;;;;;;5058654;28;20205;-84
2022/09/15 13:42:00;;;;;;;1.60;0.90;;;20.30;99.90;;;;;;5059650;28;20225;-84
2022/09/15 13:44:40;;;;;;;1.43;0.90;;;21.10;99.90;;;;;;5057521;28;20768;-85
2022/09/15 13:47:30;;;;;;;1.13;0.80;;;21.60;99.90;;;;;;5057363;28;20169;-85
2022/09/15 13:50:34;;;;;;;2.47;1.03;;;21.70;99.90;;;;;;5058209;28;20177;-84
2022/09/15 13:53:26;;;;;;;1.30;0.90;;;21.60;99.90;;;;;;5057681;28;20224;-83
2022/09/15 13:55:54;;;;;;;0.70;0.70;;;22.10;99.90;;;;;;5059383;28;20162;-85
2022/09/15 13:58:23;;;;;;;0.93;0.90;;;22.50;99.90;;;;;;5058550;28;20585;-83
2022/09/15 14:01:05;;;;;;;1.47;1.30;;;22.50;99.90;;;;;;5056988;28;20183;-84
2022/09/15 14:03:38;;;;;;;1.33;0.97;;;22.60;99.90;;;;;;5066248;28;20189;-81
2022/09/15 14:06:13;;;;;;;1.37;0.87;;;22.50;99.90;;;;;;5067300;28;20170;-80
2022/09/15 14:08:41;;;;;;;1.20;0.97;;;21.60;99.90;;;;;;5068922;28;20169;-82
2022/09/15 14:11:13;;;;;;;1.70;0.77;;;21.10;99.90;;;;;;5073927;28;20168;-83
2022/09/15 14:13:47;;;;;;;1.43;0.90;;;20.20;99.90;;;;;;5063674;28;20212;-85
2022/09/15 14:16:23;;;;;;;1.00;0.83;;;19.60;99.90;;;;;;5056464;28;20169;-82
2022/09/15 14:18:50;;;;;;;1.00;0.87;;;;;;;;;;5058248;28;20235;-83
2022/09/15 14:21:21;;;;;;;3.63;1.10;;;19.30;99.90;;;;;;5057881;28;20165;-85
2022/09/15 14:23:49;;;;;;;1.57;1.00;;;19.20;99.90;;;;;;5056957;28;20208;-84
2022/09/15 14:26:18;;;;;;;1.03;0.93;;;19.20;99.90;;;;;;5058787;28;20170;-82
2022/09/15 14:29:16;;;;;;;1.30;1.20;;;19.20;99.90;;;;;;5057685;28;20173;-85
2022/09/15 14:31:41;;;;;;;0.90;0.80;;;18.90;99.90;;;;;;5057223;28;21037;-82
2022/09/15 14:34:16;;;;;;;1.37;1.27;;;19.10;99.90;;;;;;5058866;28;20200;-83
2022/09/15 14:36:42;;;;;;;1.67;0.90;;;19.10;99.90;;;;;;5061884;28;20162;-84
2022/09/15 14:39:10;;;;;;;0.80;0.80;;;19.20;99.90;;;;;;5064302;28;20202;-84
2022/09/15 14:41:39;;;;;;;1.03;0.93;;;19.40;99.90;;;;;;5062900;28;20207;-84
2022/09/15 14:44:39;;;;;;;1.37;1.27;;;19.10;99.90;;;;;;5063097;28;20195;-82
2022/09/15 14:47:31;;;;;;;1.50;1.00;;;18.80;99.90;;;;;;5062116;28;20229;-85
2022/09/15 14:50:15;;;;;;;2.93;1.10;;;18.10;99.90;;;;;;5058989;28;20243;-83
2022/09/15 14:52:47;;;;;;;2.20;1.07;;;18.20;99.90;;;;;;5059785;28;20303;-83
2022/09/15 14:55:34;;;;;;;3.20;1.23;;;17.70;99.90;;;;;;5061080;28;20167;-83
2022/09/15 14:58:06;;;;;;;1.10;1.00;;;17.80;99.90;;;;;;5060153;28;20264;-84
2022/09/15 15:00:39;;;;;;;2.90;1.23;;;17.50;99.90;;;;;;5060574;28;20175;-82
2022/09/15 15:03:36;;;;;;;1.23;1.07;;;17.50;99.90;;;;;;5059896;28;20253;-82
2022/09/15 15:06:15;;;;;;;4.30;1.30;;;17.40;99.90;;;;;;5061418;28;20190;-84
2022/09/15 15:08:55;;;;;;;1.97;1.40;;;17.50;99.90;;;;;;5059901;28;20597;-83
2022/09/15 15:11:21;;;;;;;1.87;1.40;;;17.00;99.90;;;;;;5060246;28;20532;-82
2022/09/15 15:13:51;;;;;;;2.17;1.40;;;17.30;99.90;;;;;;5061330;28;20189;-81
2022/09/15 15:16:21;;;;;;;1.40;1.20;;;17.10;99.90;;;;;;5061204;28;20173;-84
2022/09/15 15:18:47;;;;;;;4.13;1.43;;;17.30;99.90;;;;;;5060401;28;20183;-84
2022/09/15 15:21:39;;;;;;;1.30;1.17;;;17.40;99.90;;;;;;5059851;28;20173;-82
2022/09/15 15:24:23;;;;;;;1.47;1.33;;;17.40;99.90;;;;;;5058653;28;20573;-85
2022/09/15 15:26:49;;;;;;;1.40;1.23;;;17.60;99.90;;;;;;5060287;28;20237;-83
2022/09/15 15:29:40;;;;;;;2.03;1.30;;;17.70;99.90;;;;;;5060016;28;20578;-82
2022/09/15 15:32:12;;;;;;;1.87;1.20;;;17.20;99.90;;;;;;5058693;28;20190;-81
2022/09/15 15:34:39;;;;;;;1.87;1.30;;;17.40;99.90;;;;;;5058969;28;20201;-82
2022/09/15 15:37:23;;;;;;;2.20;1.20;;;17.10;99.90;;;;;;5058838;28;20189;-81
2022/09/15 15:39:48;;;;;;;1.27;1.17;;;17.20;99.90;;;;;;5060071;28;20162;-83
2022/09/15 15:42:15;;;;;;;1.10;1.00;;;17.40;99.90;;;;;;5058884;28;20198;-85
2022/09/15 15:44:59;;;;;;;2.37;1.20;;;17.40;99.90;;;;;;5059660;28;20203;-83
2022/09/15 15:47:31;;;;;;;1.30;1.00;;;17.30;99.90;;;;;;5059732;28;20259;-83
2022/09/15 15:50:08;;;;;;;1.27;0.90;;;17.30;99.90;;;;;;5061202;28;20154;-83
2022/09/15 15:52:33;;;;;;;2.07;1.07;;;17.10;99.90;;;;;;5060889;28;20253;-83
2022/09/15 15:54:59;;;;;;;2.20;1.00;;;16.70;99.90;;;;;;5059621;28;20263;-83
2022/09/15 15:57:27;;;;;;;1.03;0.93;;;17.00;99.90;;;;;;5059930;28;20173;-83
2022/09/15 15:59:57;;;;;;;1.40;0.80;;;16.80;99.90;;;;;;5059856;28;20262;-84
2022/09/15 16:02:25;;;;;;;1.00;0.90;;;17.00;99.90;;;;;;5059807;28;20255;-84
2022/09/15 16:04:52;;;;;;;1.30;0.80;;;;;;;;;;5059484;28;20201;-81
2022/09/15 16:07:20;;;;;;;0.80;0.80;;;16.90;99.90;;;;;;5060392;28;20256;-84
2022/09/15 16:09:47;;;;;;;0.80;0.80;;;16.90;99.90;;;;;;5060998;28;20273;-84
2022/09/15 16:12:14;;;;;;;1.23;1.00;;;16.90;99.90;;;;;;5061128;28;20193;-84
2022/09/15 16:14:40;;;;;;;1.50;0.90;;;;;;;;;;5060128;28;20193;-83
2022/09/15 16:17:06;;;;;;;1.20;1.10;;;17.00;99.90;;;;;;5061509;28;20174;-84
2022/09/15 16:19:32;;;;;;;1.80;1.10;;;;;;;;;;5059846;28;20193;-83
2022/09/15 16:22:01;;;;;;;1.10;1.00;;;16.90;99.90;;;;;;5060312;28;20204;-83
2022/09/15 16:24:27;;;;;;;1.83;1.53;;;;;;;;;;5059203;28;20273;-82
2022/09/15 16:26:53;;;;;;;3.90;1.70;;;;;;;;;;5058788;28;20193;-82
2022/09/15 16:29:24;;;;;;;3.20;1.80;;;16.50;99.90;;;;;;5059812;28;20174;-82
2022/09/15 16:31:51;;;;;;;2.90;2.17;;;;;;;;;;5059941;28;20201;-86
2022/09/15 16:34:17;;;;;;;2.37;2.17;;;16.20;99.90;;;;;;5060733;28;20173;-87
2022/09/15 16:36:43;;;;;;;2.60;2.40;;;;;;;;;;5058228;28;20186;-84
2022/09/15 16:39:09;;;;;;;2.67;2.47;;;;;;;;;;5059617;28;20181;-84
2022/09/15 16:41:36;;;;;;;2.70;2.50;;;;;;;;;;5059499;28;20335;-84
2022/09/15 16:44:02;;;;;;;3.03;2.80;;;15.50;99.90;;;;;;5059072;28;20217;-84
2022/09/15 16:46:29;;;;;;;3.37;3.07;;;;;;;;;;5060191;28;20184;-84
2022/09/15 16:48:56;;;;;;;3.27;2.97;;;;;;;;;;5059683;28;20195;-85
2022/09/15 16:51:23;;;;;;;3.67;3.37;;;;;;;;;;5058378;28;20201;-85
2022/09/15 16:53:50;;;;;;;6.57;5.97;;;;;;;;;;5059781;28;20209;-86
2022/09/15 16:56:17;;;;;;;3.67;3.37;;;15.20;99.90;;;;;;5058540;28;20189;-83
2022/09/15 16:58:43;;;;;;;8.23;6.70;;;15.10;99.90;;;;;;5058810;28;20174;-84
2022/09/15 17:01:18;;;;;;;5.10;4.60;;;15.30;99.90;;;;;;5059623;28;20180;-84
2022/09/15 17:03:44;;;;;;;4.97;4.47;;;15.10;99.90;;;;;;5061033;28;20197;-83
2022/09/15 17:06:12;;;;;;;5.23;4.73;;;15.10;99.90;;;;;;5061540;28;20170;-86
2022/09/15 17:08:38;;;;;;;5.03;3.87;;;;;;;;;;5060086;28;20169;-84
2022/09/15 17:11:09;;;;;;;5.87;4.20;;;14.90;99.90;;;;;;5058216;28;20189;-84
2022/09/15 17:13:35;;;;;;;4.63;4.23;;;;;;;;;;5059706;28;20696;-83
2022/09/15 17:16:01;;;;;;;4.10;3.70;;;;;;;;;;5059220;28;20242;-82
2022/09/15 17:18:27;;;;;;;5.23;4.10;;;14.70;99.90;;;;;;5059527;28;20193;-83
2022/09/15 17:20:53;;;;;;;3.93;3.57;;;;;;;;;;5060688;28;20166;-84
2022/09/15 17:23:30;;;;;;;5.23;3.40;;;14.50;99.90;;;;;;5058938;28;20193;-84
2022/09/15 17:26:00;;;;;;;5.30;3.40;;;14.50;99.90;;;;;;5061389;28;20153;-84
2022/09/15 17:28:27;;;;;;;4.17;3.50;;;;;;;;;;5057014;28;20170;-84
2022/09/15 17:30:59;;;;;;;4.17;3.77;;;14.40;99.90;;;;;;5060367;28;20169;-83
2022/09/15 17:33:25;;;;;;;3.70;3.30;;;14.30;99.90;;;;;;5064896;28;20253;-82
2022/09/15 17:35:52;;;;;;;5.30;3.93;;;;;;;;;;5069582;28;20174;-83
2022/09/15 17:38:20;;;;;;;4.13;3.23;;;;;;;;;;5061320;28;20248;-80
2022/09/15 17:40:46;;;;;;;5.50;3.70;;;;;;;;;;5057109;28;20174;-80
2022/09/15 17:43:20;;;;;;;4.60;3.67;;;14.20;99.90;;;;;;5057985;28;20224;-85
2022/09/15 17:45:47;;;;;;;4.60;3.33;;;14.30;99.90;;;;;;5060070;28;20241;-84
2022/09/15 17:48:13;;;;;;;4.00;3.23;;;;;;;;;;5042351;28;20178;-83
2022/09/15 17:50:40;;;;;;;5.47;3.83;;;14.20;99.90;;;;;;5055780;28;20192;-82
2022/09/15 17:53:16;;;;;;;5.23;3.80;;;14.10;99.90;;;;;;5056759;28;20522;-83
2022/09/15 17:55:42;;;;;;;4.10;3.30;;;;;;;;;;5055861;28;20188;-83
2022/09/15 17:58:09;;;;;;;4.63;3.27;;;;;;;;;;5055407;28;20705;-83
2022/09/15 18:00:37;;;;;;;5.03;3.77;;;13.90;99.90;;;;;;5056857;28;20186;-83
2022/09/15 18:03:19;;;;;;;3.73;3.33;;;14.00;99.90;;;;;;5058435;28;20200;-83
2022/09/15 18:05:45;;;;;;;7.80;3.37;;;14.00;99.90;;;;;;5056341;28;20569;-84
2022/09/15 18:08:11;;;;;;;7.00;3.83;;;;;;;;;;5056407;28;20181;-83